sensor_id;sensor_type;location;lat;lon;timestamp;temperature;humidity
9375;DHT22;4727;51.202;6.344;2022-07-29T00:01:15;20.10;1.00
9375;DHT22;4727;51.202;6.344;2022-07-29T00:03:41;20.00;1.00
9375;DHT22;4727;51.202;6.344;2022-07-29T00:06:07;20.00;1.00
9375;DHT22;4727;51.202;6.344;2022-07-29T00:08:32;20.00;1.00
9375;DHT22;4727;51.202;6.344;2022-07-29T00:10:58;20.00;1.00
9375;DHT22;4727;51.202;6.344;2022-07-29T00:13:24;20.00;1.00
9375;DHT22;4727;51.202;6.344;2022-07-29T00:15:49;20.00;1.00
9375;DHT22;4727;51.202;6.344;2022-07-29T00:18:15;19.90;1.00
9375;DHT22;4727;51.202;6.344;2022-07-29T00:20:40;19.90;1.00
9375;DHT22;4727;51.202;6.344;2022-07-29T00:23:06;19.90;1.00
9375;DHT22;4727;51.202;6.344;2022-07-29T00:25:32;19.90;1.00
9375;DHT22;4727;51.202;6.344;2022-07-29T00:27:57;19.90;1.00
9375;DHT22;4727;51.202;6.344;2022-07-29T00:30:23;19.90;1.00
9375;DHT22;4727;51.202;6.344;2022-07-29T00:32:49;19.90;1.00
9375;DHT22;4727;51.202;6.344;2022-07-29T00:35:14;19.90;1.00
9375;DHT22;4727;51.202;6.344;2022-07-29T00:37:58;19.90;1.00
9375;DHT22;4727;51.202;6.344;2022-07-29T00:40:24;19.80;1.00
9375;DHT22;4727;51.202;6.344;2022-07-29T00:42:51;19.80;1.00
9375;DHT22;4727;51.202;6.344;2022-07-29T00:45:17;19.80;1.00
9375;DHT22;4727;51.202;6.344;2022-07-29T00:47:43;19.80;1.00
9375;DHT22;4727;51.202;6.344;2022-07-29T00:50:11;19.80;1.00
9375;DHT22;4727;51.202;6.344;2022-07-29T00:52:40;19.80;1.00
9375;DHT22;4727;51.202;6.344;2022-07-29T00:55:10;19.80;1.00
9375;DHT22;4727;51.202;6.344;2022-07-29T00:57:36;19.80;1.00
9375;DHT22;4727;51.202;6.344;2022-07-29T01:00:06;19.80;1.00
9375;DHT22;4727;51.202;6.344;2022-07-29T01:02:32;19.80;1.00
9375;DHT22;4727;51.202;6.344;2022-07-29T01:04:58;19.80;1.00
9375;DHT22;4727;51.202;6.344;2022-07-29T01:07:25;19.80;1.00
9375;DHT22;4727;51.202;6.344;2022-07-29T01:09:53;19.70;1.00
9375;DHT22;4727;51.202;6.344;2022-07-29T01:12:23;19.70;1.00
9375;DHT22;4727;51.202;6.344;2022-07-29T01:14:50;19.70;1.00
9375;DHT22;4727;51.202;6.344;2022-07-29T01:17:25;19.70;1.00
9375;DHT22;4727;51.202;6.344;2022-07-29T01:29:11;19.60;1.00
9375;DHT22;4727;51.202;6.344;2022-07-29T01:34:41;19.00;6.30
9375;DHT22;4727;51.202;6.344;2022-07-29T01:39:42;18.90;2.00
9375;DHT22;4727;51.202;6.344;2022-07-29T01:42:27;19.00;1.00
9375;DHT22;4727;51.202;6.344;2022-07-29T01:48:04;19.10;1.00
9375;DHT22;4727;51.202;6.344;2022-07-29T01:50:46;19.10;1.00
9375;DHT22;4727;51.202;6.344;2022-07-29T01:53:16;19.10;1.00
9375;DHT22;4727;51.202;6.344;2022-07-29T01:55:48;19.20;1.00
9375;DHT22;4727;51.202;6.344;2022-07-29T01:58:17;19.20;1.00
9375;DHT22;4727;51.202;6.344;2022-07-29T02:00:45;19.20;1.00
9375;DHT22;4727;51.202;6.344;2022-07-29T02:03:13;19.20;1.00
9375;DHT22;4727;51.202;6.344;2022-07-29T02:05:42;19.20;1.00
9375;DHT22;4727;51.202;6.344;2022-07-29T02:08:10;19.20;1.00
9375;DHT22;4727;51.202;6.344;2022-07-29T02:10:37;19.10;1.00
9375;DHT22;4727;51.202;6.344;2022-07-29T02:13:03;19.10;1.00
9375;DHT22;4727;51.202;6.344;2022-07-29T02:15:32;19.10;1.00
9375;DHT22;4727;51.202;6.344;2022-07-29T02:18:02;19.10;14.40
9375;DHT22;4727;51.202;6.344;2022-07-29T02:20:30;19.00;68.60
9375;DHT22;4727;51.202;6.344;2022-07-29T02:22:58;18.90;99.90
9375;DHT22;4727;51.202;6.344;2022-07-29T02:25:26;18.80;99.90
9375;DHT22;4727;51.202;6.344;2022-07-29T02:27:53;18.80;99.90
9375;DHT22;4727;51.202;6.344;2022-07-29T02:30:21;18.70;99.90
9375;DHT22;4727;51.202;6.344;2022-07-29T02:32:48;18.70;99.90
9375;DHT22;4727;51.202;6.344;2022-07-29T02:35:15;18.70;99.90
9375;DHT22;4727;51.202;6.344;2022-07-29T02:37:43;18.70;99.90
9375;DHT22;4727;51.202;6.344;2022-07-29T02:40:11;18.60;99.90
9375;DHT22;4727;51.202;6.344;2022-07-29T02:42:41;18.60;99.90
9375;DHT22;4727;51.202;6.344;2022-07-29T02:45:07;18.70;99.90
9375;DHT22;4727;51.202;6.344;2022-07-29T02:47:48;18.60;99.90
9375;DHT22;4727;51.202;6.344;2022-07-29T02:50:23;18.60;1.00
9375;DHT22;4727;51.202;6.344;2022-07-29T02:53:01;18.60;99.90
9375;DHT22;4727;51.202;6.344;2022-07-29T02:55:36;18.60;1.00
9375;DHT22;4727;51.202;6.344;2022-07-29T02:58:06;18.50;1.00
9375;DHT22;4727;51.202;6.344;2022-07-29T03:00:37;18.30;1.00
9375;DHT22;4727;51.202;6.344;2022-07-29T03:03:06;18.10;14.50
9375;DHT22;4727;51.202;6.344;2022-07-29T03:05:32;18.00;99.90
9375;DHT22;4727;51.202;6.344;2022-07-29T03:08:01;17.80;99.90
9375;DHT22;4727;51.202;6.344;2022-07-29T03:10:28;17.60;1.00
9375;DHT22;4727;51.202;6.344;2022-07-29T03:12:55;17.50;1.00
9375;DHT22;4727;51.202;6.344;2022-07-29T03:15:21;17.50;1.00
9375;DHT22;4727;51.202;6.344;2022-07-29T03:17:48;17.50;1.00
9375;DHT22;4727;51.202;6.344;2022-07-29T03:20:14;17.40;99.90
9375;DHT22;4727;51.202;6.344;2022-07-29T03:22:42;17.30;1.00
9375;DHT22;4727;51.202;6.344;2022-07-29T03:25:17;17.20;1.00
9375;DHT22;4727;51.202;6.344;2022-07-29T03:27:43;17.10;1.00
9375;DHT22;4727;51.202;6.344;2022-07-29T03:30:10;17.00;99.90
9375;DHT22;4727;51.202;6.344;2022-07-29T03:32:36;16.90;1.00
9375;DHT22;4727;51.202;6.344;2022-07-29T03:35:03;16.80;1.00
9375;DHT22;4727;51.202;6.344;2022-07-29T03:37:29;16.80;1.00
9375;DHT22;4727;51.202;6.344;2022-07-29T03:40:00;16.80;1.00
9375;DHT22;4727;51.202;6.344;2022-07-29T03:42:28;16.80;11.80
9375;DHT22;4727;51.202;6.344;2022-07-29T03:44:56;16.90;32.60
9375;DHT22;4727;51.202;6.344;2022-07-29T03:47:24;16.90;7.30
9375;DHT22;4727;51.202;6.344;2022-07-29T03:49:58;16.80;1.00
9375;DHT22;4727;51.202;6.344;2022-07-29T03:52:25;16.90;1.00
9375;DHT22;4727;51.202;6.344;2022-07-29T03:54:50;16.90;1.00
9375;DHT22;4727;51.202;6.344;2022-07-29T03:57:18;16.90;99.90
9375;DHT22;4727;51.202;6.344;2022-07-29T03:59:46;16.90;99.90
9375;DHT22;4727;51.202;6.344;2022-07-29T04:02:12;17.00;1.00
9375;DHT22;4727;51.202;6.344;2022-07-29T04:04:38;16.80;1.00
9375;DHT22;4727;51.202;6.344;2022-07-29T04:07:04;16.70;80.60
9375;DHT22;4727;51.202;6.344;2022-07-29T04:09:30;16.80;99.90
9375;DHT22;4727;51.202;6.344;2022-07-29T04:11:56;16.80;69.80
9375;DHT22;4727;51.202;6.344;2022-07-29T04:14:21;16.90;1.00
9375;DHT22;4727;51.202;6.344;2022-07-29T04:16:47;16.90;99.90
9375;DHT22;4727;51.202;6.344;2022-07-29T04:19:12;16.90;1.00
9375;DHT22;4727;51.202;6.344;2022-07-29T04:21:40;16.90;1.00
9375;DHT22;4727;51.202;6.344;2022-07-29T04:24:06;16.80;14.50
9375;DHT22;4727;51.202;6.344;2022-07-29T04:26:32;16.70;99.90
9375;DHT22;4727;51.202;6.344;2022-07-29T04:28:58;16.70;99.90
9375;DHT22;4727;51.202;6.344;2022-07-29T04:31:23;16.60;1.00
9375;DHT22;4727;51.202;6.344;2022-07-29T04:33:49;16.60;1.00
9375;DHT22;4727;51.202;6.344;2022-07-29T04:36:14;16.60;1.00
9375;DHT22;4727;51.202;6.344;2022-07-29T04:38:40;16.50;99.90
9375;DHT22;4727;51.202;6.344;2022-07-29T04:41:06;16.50;99.90
9375;DHT22;4727;51.202;6.344;2022-07-29T04:43:34;16.50;1.00
9375;DHT22;4727;51.202;6.344;2022-07-29T04:46:00;16.50;99.90
9375;DHT22;4727;51.202;6.344;2022-07-29T04:48:26;16.50;1.00
9375;DHT22;4727;51.202;6.344;2022-07-29T04:50:51;16.50;1.00
9375;DHT22;4727;51.202;6.344;2022-07-29T04:53:17;16.50;95.80
9375;DHT22;4727;51.202;6.344;2022-07-29T04:55:43;16.50;99.90
9375;DHT22;4727;51.202;6.344;2022-07-29T04:58:10;16.50;1.00
9375;DHT22;4727;51.202;6.344;2022-07-29T05:00:36;16.60;99.90
9375;DHT22;4727;51.202;6.344;2022-07-29T05:03:01;16.60;99.90
9375;DHT22;4727;51.202;6.344;2022-07-29T05:05:27;16.60;99.90
9375;DHT22;4727;51.202;6.344;2022-07-29T05:07:53;16.60;1.00
9375;DHT22;4727;51.202;6.344;2022-07-29T05:10:18;16.70;99.90
9375;DHT22;4727;51.202;6.344;2022-07-29T05:12:44;16.70;1.00
9375;DHT22;4727;51.202;6.344;2022-07-29T05:15:09;16.80;1.00
9375;DHT22;4727;51.202;6.344;2022-07-29T05:17:35;16.80;1.00
9375;DHT22;4727;51.202;6.344;2022-07-29T05:20:01;16.80;99.90
9375;DHT22;4727;51.202;6.344;2022-07-29T05:22:26;16.90;99.90
9375;DHT22;4727;51.202;6.344;2022-07-29T05:24:52;16.90;1.00
9375;DHT22;4727;51.202;6.344;2022-07-29T05:27:17;16.90;1.00
9375;DHT22;4727;51.202;6.344;2022-07-29T05:29:43;16.90;99.90
9375;DHT22;4727;51.202;6.344;2022-07-29T05:32:09;16.90;99.90
9375;DHT22;4727;51.202;6.344;2022-07-29T05:34:35;16.80;99.90
9375;DHT22;4727;51.202;6.344;2022-07-29T05:37:00;16.80;99.90
9375;DHT22;4727;51.202;6.344;2022-07-29T05:39:26;16.80;1.00
9375;DHT22;4727;51.202;6.344;2022-07-29T05:41:51;16.80;1.00
9375;DHT22;4727;51.202;6.344;2022-07-29T05:44:17;16.80;99.90
9375;DHT22;4727;51.202;6.344;2022-07-29T05:46:43;16.90;99.90
9375;DHT22;4727;51.202;6.344;2022-07-29T05:49:08;16.90;1.00
9375;DHT22;4727;51.202;6.344;2022-07-29T05:51:34;16.90;99.90
9375;DHT22;4727;51.202;6.344;2022-07-29T05:54:00;16.80;99.90
9375;DHT22;4727;51.202;6.344;2022-07-29T05:56:27;16.90;1.00
9375;DHT22;4727;51.202;6.344;2022-07-29T05:58:53;16.90;1.00
9375;DHT22;4727;51.202;6.344;2022-07-29T06:01:19;16.80;99.90
9375;DHT22;4727;51.202;6.344;2022-07-29T06:03:45;16.70;1.00
9375;DHT22;4727;51.202;6.344;2022-07-29T06:06:10;16.40;99.90
9375;DHT22;4727;51.202;6.344;2022-07-29T06:08:38;16.20;1.00
9375;DHT22;4727;51.202;6.344;2022-07-29T06:11:04;16.00;1.00
9375;DHT22;4727;51.202;6.344;2022-07-29T06:13:30;16.00;61.30
9375;DHT22;4727;51.202;6.344;2022-07-29T06:15:56;15.90;99.90
9375;DHT22;4727;51.202;6.344;2022-07-29T06:18:22;15.90;97.60
9375;DHT22;4727;51.202;6.344;2022-07-29T06:20:50;16.00;99.90
9375;DHT22;4727;51.202;6.344;2022-07-29T06:23:16;16.00;53.50
9375;DHT22;4727;51.202;6.344;2022-07-29T06:25:42;16.00;1.00
9375;DHT22;4727;51.202;6.344;2022-07-29T06:28:08;16.10;1.00
9375;DHT22;4727;51.202;6.344;2022-07-29T06:30:34;16.20;1.00
9375;DHT22;4727;51.202;6.344;2022-07-29T06:32:59;16.30;1.00
9375;DHT22;4727;51.202;6.344;2022-07-29T06:35:27;16.50;1.00
9375;DHT22;4727;51.202;6.344;2022-07-29T06:37:52;16.60;1.00
9375;DHT22;4727;51.202;6.344;2022-07-29T06:40:18;16.50;1.00
9375;DHT22;4727;51.202;6.344;2022-07-29T06:43:02;16.40;1.00
9375;DHT22;4727;51.202;6.344;2022-07-29T06:45:28;16.50;1.00
9375;DHT22;4727;51.202;6.344;2022-07-29T06:47:54;16.60;1.00
9375;DHT22;4727;51.202;6.344;2022-07-29T06:50:19;16.60;1.00
9375;DHT22;4727;51.202;6.344;2022-07-29T06:52:45;16.70;99.90
9375;DHT22;4727;51.202;6.344;2022-07-29T06:55:11;16.70;99.90
9375;DHT22;4727;51.202;6.344;2022-07-29T06:57:36;16.70;99.90
9375;DHT22;4727;51.202;6.344;2022-07-29T07:00:03;16.80;99.90
9375;DHT22;4727;51.202;6.344;2022-07-29T07:02:30;16.70;99.90
9375;DHT22;4727;51.202;6.344;2022-07-29T07:04:55;16.70;99.90
9375;DHT22;4727;51.202;6.344;2022-07-29T07:07:21;16.70;1.00
9375;DHT22;4727;51.202;6.344;2022-07-29T07:09:47;16.70;1.00
9375;DHT22;4727;51.202;6.344;2022-07-29T07:12:12;16.70;1.00
9375;DHT22;4727;51.202;6.344;2022-07-29T07:14:38;16.70;1.00
9375;DHT22;4727;51.202;6.344;2022-07-29T07:17:05;16.70;1.00
9375;DHT22;4727;51.202;6.344;2022-07-29T07:19:32;16.80;1.00
9375;DHT22;4727;51.202;6.344;2022-07-29T07:21:57;16.80;1.00
9375;DHT22;4727;51.202;6.344;2022-07-29T07:24:23;16.80;1.00
9375;DHT22;4727;51.202;6.344;2022-07-29T07:26:48;16.80;1.00
9375;DHT22;4727;51.202;6.344;2022-07-29T07:29:14;16.90;1.00
9375;DHT22;4727;51.202;6.344;2022-07-29T07:31:40;16.90;1.00
9375;DHT22;4727;51.202;6.344;2022-07-29T07:34:05;17.00;1.00
9375;DHT22;4727;51.202;6.344;2022-07-29T07:36:31;17.10;1.00
9375;DHT22;4727;51.202;6.344;2022-07-29T07:38:56;17.10;99.90
9375;DHT22;4727;51.202;6.344;2022-07-29T07:41:22;17.20;99.90
9375;DHT22;4727;51.202;6.344;2022-07-29T07:43:48;17.30;99.90
9375;DHT22;4727;51.202;6.344;2022-07-29T07:46:14;17.30;99.90
9375;DHT22;4727;51.202;6.344;2022-07-29T07:48:39;17.30;99.90
9375;DHT22;4727;51.202;6.344;2022-07-29T07:51:05;17.40;1.00
9375;DHT22;4727;51.202;6.344;2022-07-29T07:53:32;17.40;79.10
9375;DHT22;4727;51.202;6.344;2022-07-29T07:55:58;17.50;1.00
9375;DHT22;4727;51.202;6.344;2022-07-29T07:58:23;17.50;1.00
9375;DHT22;4727;51.202;6.344;2022-07-29T08:00:49;17.60;1.00
9375;DHT22;4727;51.202;6.344;2022-07-29T08:03:15;17.60;99.90
9375;DHT22;4727;51.202;6.344;2022-07-29T08:05:40;17.60;27.10
9375;DHT22;4727;51.202;6.344;2022-07-29T08:08:06;17.60;1.00
9375;DHT22;4727;51.202;6.344;2022-07-29T08:10:32;17.60;1.00
9375;DHT22;4727;51.202;6.344;2022-07-29T08:13:17;17.60;1.00
9375;DHT22;4727;51.202;6.344;2022-07-29T08:15:43;17.60;1.00
9375;DHT22;4727;51.202;6.344;2022-07-29T08:18:10;17.70;99.90
9375;DHT22;4727;51.202;6.344;2022-07-29T08:20:36;17.70;99.90
9375;DHT22;4727;51.202;6.344;2022-07-29T08:23:04;17.80;1.00
9375;DHT22;4727;51.202;6.344;2022-07-29T08:25:40;17.80;1.00
9375;DHT22;4727;51.202;6.344;2022-07-29T08:28:07;17.80;1.00
9375;DHT22;4727;51.202;6.344;2022-07-29T08:30:33;17.90;1.00
9375;DHT22;4727;51.202;6.344;2022-07-29T08:32:59;17.90;99.90
9375;DHT22;4727;51.202;6.344;2022-07-29T08:35:25;18.00;99.90
9375;DHT22;4727;51.202;6.344;2022-07-29T08:37:51;18.00;85.50
9375;DHT22;4727;51.202;6.344;2022-07-29T08:40:17;18.00;1.00
9375;DHT22;4727;51.202;6.344;2022-07-29T08:42:43;18.10;1.00
9375;DHT22;4727;51.202;6.344;2022-07-29T08:45:09;18.10;99.90
9375;DHT22;4727;51.202;6.344;2022-07-29T08:47:35;18.10;1.00
9375;DHT22;4727;51.202;6.344;2022-07-29T08:50:08;18.20;1.00
9375;DHT22;4727;51.202;6.344;2022-07-29T08:52:39;18.20;90.10
9375;DHT22;4727;51.202;6.344;2022-07-29T08:55:06;18.20;99.90
9375;DHT22;4727;51.202;6.344;2022-07-29T08:57:33;18.20;1.00
9375;DHT22;4727;51.202;6.344;2022-07-29T09:00:00;18.20;99.90
9375;DHT22;4727;51.202;6.344;2022-07-29T09:02:28;18.30;99.90
9375;DHT22;4727;51.202;6.344;2022-07-29T09:04:55;18.30;99.90
9375;DHT22;4727;51.202;6.344;2022-07-29T09:07:22;18.30;1.00
9375;DHT22;4727;51.202;6.344;2022-07-29T09:09:47;18.40;99.90
9375;DHT22;4727;51.202;6.344;2022-07-29T09:12:13;18.40;99.90
9375;DHT22;4727;51.202;6.344;2022-07-29T09:14:39;18.50;1.00
9375;DHT22;4727;51.202;6.344;2022-07-29T09:17:06;18.50;99.90
9375;DHT22;4727;51.202;6.344;2022-07-29T09:19:34;18.70;99.90
9375;DHT22;4727;51.202;6.344;2022-07-29T09:22:07;18.70;99.90
9375;DHT22;4727;51.202;6.344;2022-07-29T09:24:44;18.90;43.20
9375;DHT22;4727;51.202;6.344;2022-07-29T09:27:18;19.00;1.00
9375;DHT22;4727;51.202;6.344;2022-07-29T09:29:46;19.10;1.00
9375;DHT22;4727;51.202;6.344;2022-07-29T09:32:11;19.20;1.00
9375;DHT22;4727;51.202;6.344;2022-07-29T09:34:37;19.30;1.00
9375;DHT22;4727;51.202;6.344;2022-07-29T09:37:03;19.40;99.90
9375;DHT22;4727;51.202;6.344;2022-07-29T09:39:37;19.50;99.90
9375;DHT22;4727;51.202;6.344;2022-07-29T09:42:10;19.60;1.00
9375;DHT22;4727;51.202;6.344;2022-07-29T09:44:50;19.70;1.00
9375;DHT22;4727;51.202;6.344;2022-07-29T09:47:17;19.70;1.00
9375;DHT22;4727;51.202;6.344;2022-07-29T09:52:20;19.90;99.90
9375;DHT22;4727;51.202;6.344;2022-07-29T09:54:46;20.00;99.90
9375;DHT22;4727;51.202;6.344;2022-07-29T09:57:26;20.00;1.00
9375;DHT22;4727;51.202;6.344;2022-07-29T10:00:01;20.10;1.00
9375;DHT22;4727;51.202;6.344;2022-07-29T10:02:32;20.10;99.90
9375;DHT22;4727;51.202;6.344;2022-07-29T10:04:58;20.20;99.90
9375;DHT22;4727;51.202;6.344;2022-07-29T10:07:24;20.30;1.00
9375;DHT22;4727;51.202;6.344;2022-07-29T10:09:55;20.40;1.00
9375;DHT22;4727;51.202;6.344;2022-07-29T10:12:22;20.50;99.90
9375;DHT22;4727;51.202;6.344;2022-07-29T10:14:48;20.50;99.90
9375;DHT22;4727;51.202;6.344;2022-07-29T10:17:16;20.50;99.90
9375;DHT22;4727;51.202;6.344;2022-07-29T10:19:42;20.60;99.90
9375;DHT22;4727;51.202;6.344;2022-07-29T10:22:09;20.60;99.90
9375;DHT22;4727;51.202;6.344;2022-07-29T10:24:35;20.50;62.00
9375;DHT22;4727;51.202;6.344;2022-07-29T10:27:04;20.50;1.00
9375;DHT22;4727;51.202;6.344;2022-07-29T10:29:30;20.40;99.90
9375;DHT22;4727;51.202;6.344;2022-07-29T10:34:46;20.30;99.90
9375;DHT22;4727;51.202;6.344;2022-07-29T10:37:33;20.30;99.90
9375;DHT22;4727;51.202;6.344;2022-07-29T10:43:16;20.40;99.90
9375;DHT22;4727;51.202;6.344;2022-07-29T10:45:45;20.30;99.90
9375;DHT22;4727;51.202;6.344;2022-07-29T10:48:12;20.40;99.90
9375;DHT22;4727;51.202;6.344;2022-07-29T10:50:58;20.40;99.90
9375;DHT22;4727;51.202;6.344;2022-07-29T10:53:24;20.40;99.90
9375;DHT22;4727;51.202;6.344;2022-07-29T10:55:51;20.40;99.90
9375;DHT22;4727;51.202;6.344;2022-07-29T10:58:19;20.40;99.90
9375;DHT22;4727;51.202;6.344;2022-07-29T11:00:50;20.40;99.90
9375;DHT22;4727;51.202;6.344;2022-07-29T11:06:07;20.60;99.90
9375;DHT22;4727;51.202;6.344;2022-07-29T11:08:32;20.60;99.90
9375;DHT22;4727;51.202;6.344;2022-07-29T11:11:36;20.70;99.90
9375;DHT22;4727;51.202;6.344;2022-07-29T11:14:02;20.60;99.90
9375;DHT22;4727;51.202;6.344;2022-07-29T11:16:58;20.70;41.70
9375;DHT22;4727;51.202;6.344;2022-07-29T11:19:23;20.70;99.90
9375;DHT22;4727;51.202;6.344;2022-07-29T11:21:50;20.60;1.00
9375;DHT22;4727;51.202;6.344;2022-07-29T11:27:19;20.70;1.00
9375;DHT22;4727;51.202;6.344;2022-07-29T11:29:55;20.80;73.30
9375;DHT22;4727;51.202;6.344;2022-07-29T11:32:23;20.80;72.10
9375;DHT22;4727;51.202;6.344;2022-07-29T11:35:11;20.90;99.90
9375;DHT22;4727;51.202;6.344;2022-07-29T11:37:35;20.80;90.20
9375;DHT22;4727;51.202;6.344;2022-07-29T11:45:17;20.90;99.90
9375;DHT22;4727;51.202;6.344;2022-07-29T11:50:14;20.70;99.90
9375;DHT22;4727;51.202;6.344;2022-07-29T11:52:45;20.50;1.00
9375;DHT22;4727;51.202;6.344;2022-07-29T11:55:15;20.50;1.00
9375;DHT22;4727;51.202;6.344;2022-07-29T11:57:49;20.60;1.00
9375;DHT22;4727;51.202;6.344;2022-07-29T12:00:41;20.80;99.90
9375;DHT22;4727;51.202;6.344;2022-07-29T12:03:09;20.80;1.00
9375;DHT22;4727;51.202;6.344;2022-07-29T12:05:39;20.80;1.00
9375;DHT22;4727;51.202;6.344;2022-07-29T12:08:16;21.00;1.00
9375;DHT22;4727;51.202;6.344;2022-07-29T12:10:47;21.10;99.90
9375;DHT22;4727;51.202;6.344;2022-07-29T12:13:15;21.10;99.90
9375;DHT22;4727;51.202;6.344;2022-07-29T12:15:41;21.10;1.00
9375;DHT22;4727;51.202;6.344;2022-07-29T12:18:17;21.40;99.90
9375;DHT22;4727;51.202;6.344;2022-07-29T12:20:44;21.60;1.00
9375;DHT22;4727;51.202;6.344;2022-07-29T12:23:10;21.80;1.00
9375;DHT22;4727;51.202;6.344;2022-07-29T12:25:40;22.00;1.00
9375;DHT22;4727;51.202;6.344;2022-07-29T12:28:09;22.00;1.00
9375;DHT22;4727;51.202;6.344;2022-07-29T12:30:49;22.00;1.00
9375;DHT22;4727;51.202;6.344;2022-07-29T12:33:24;22.40;99.90
9375;DHT22;4727;51.202;6.344;2022-07-29T12:35:53;22.60;99.90
9375;DHT22;4727;51.202;6.344;2022-07-29T12:38:19;22.70;90.60
9375;DHT22;4727;51.202;6.344;2022-07-29T12:40:47;22.80;1.00
9375;DHT22;4727;51.202;6.344;2022-07-29T12:43:16;22.80;99.90
9375;DHT22;4727;51.202;6.344;2022-07-29T12:45:52;22.80;1.00
9375;DHT22;4727;51.202;6.344;2022-07-29T12:51:00;23.30;1.00
9375;DHT22;4727;51.202;6.344;2022-07-29T12:53:26;23.50;1.00
9375;DHT22;4727;51.202;6.344;2022-07-29T12:55:54;23.80;1.00
9375;DHT22;4727;51.202;6.344;2022-07-29T12:58:33;24.00;1.00
9375;DHT22;4727;51.202;6.344;2022-07-29T13:08:59;24.40;99.90
9375;DHT22;4727;51.202;6.344;2022-07-29T13:11:36;24.70;99.90
9375;DHT22;4727;51.202;6.344;2022-07-29T13:14:03;25.00;99.90
9375;DHT22;4727;51.202;6.344;2022-07-29T13:16:28;25.20;99.90
9375;DHT22;4727;51.202;6.344;2022-07-29T13:19:09;25.30;80.00
9375;DHT22;4727;51.202;6.344;2022-07-29T13:21:35;25.60;7.00
9375;DHT22;4727;51.202;6.344;2022-07-29T13:24:01;25.80;1.00
9375;DHT22;4727;51.202;6.344;2022-07-29T13:26:27;25.90;1.00
9375;DHT22;4727;51.202;6.344;2022-07-29T13:28:53;26.00;1.00
9375;DHT22;4727;51.202;6.344;2022-07-29T13:31:20;25.90;1.00
9375;DHT22;4727;51.202;6.344;2022-07-29T13:33:45;25.90;1.00
9375;DHT22;4727;51.202;6.344;2022-07-29T13:36:11;26.00;1.00
9375;DHT22;4727;51.202;6.344;2022-07-29T13:38:36;26.30;1.00
9375;DHT22;4727;51.202;6.344;2022-07-29T13:41:02;26.50;1.00
9375;DHT22;4727;51.202;6.344;2022-07-29T13:43:27;26.80;1.00
9375;DHT22;4727;51.202;6.344;2022-07-29T13:45:53;27.00;1.00
9375;DHT22;4727;51.202;6.344;2022-07-29T13:48:19;27.10;1.00
9375;DHT22;4727;51.202;6.344;2022-07-29T13:50:44;27.20;1.00
9375;DHT22;4727;51.202;6.344;2022-07-29T13:53:10;27.10;1.00
9375;DHT22;4727;51.202;6.344;2022-07-29T13:55:36;27.30;1.00
9375;DHT22;4727;51.202;6.344;2022-07-29T13:58:02;27.50;1.00
9375;DHT22;4727;51.202;6.344;2022-07-29T14:00:28;27.60;1.00
9375;DHT22;4727;51.202;6.344;2022-07-29T14:02:54;27.60;1.00
9375;DHT22;4727;51.202;6.344;2022-07-29T14:05:20;27.60;1.00
9375;DHT22;4727;51.202;6.344;2022-07-29T14:07:45;27.50;1.00
9375;DHT22;4727;51.202;6.344;2022-07-29T14:10:11;27.50;1.00
9375;DHT22;4727;51.202;6.344;2022-07-29T14:12:37;27.60;1.00
9375;DHT22;4727;51.202;6.344;2022-07-29T14:15:04;27.80;99.90
9375;DHT22;4727;51.202;6.344;2022-07-29T14:17:29;27.70;99.90
9375;DHT22;4727;51.202;6.344;2022-07-29T14:19:55;27.60;99.90
9375;DHT22;4727;51.202;6.344;2022-07-29T14:22:21;27.60;99.90
9375;DHT22;4727;51.202;6.344;2022-07-29T14:24:46;27.70;99.90
9375;DHT22;4727;51.202;6.344;2022-07-29T14:27:12;27.70;99.90
9375;DHT22;4727;51.202;6.344;2022-07-29T14:29:37;27.80;99.90
9375;DHT22;4727;51.202;6.344;2022-07-29T14:32:06;27.60;99.90
9375;DHT22;4727;51.202;6.344;2022-07-29T14:34:33;27.40;99.90
9375;DHT22;4727;51.202;6.344;2022-07-29T14:36:58;27.10;99.90
9375;DHT22;4727;51.202;6.344;2022-07-29T14:39:24;27.10;99.90
9375;DHT22;4727;51.202;6.344;2022-07-29T14:41:50;27.30;99.90
9375;DHT22;4727;51.202;6.344;2022-07-29T14:44:17;27.00;99.90
9375;DHT22;4727;51.202;6.344;2022-07-29T14:46:43;27.20;1.00
9375;DHT22;4727;51.202;6.344;2022-07-29T14:49:08;27.50;1.00
9375;DHT22;4727;51.202;6.344;2022-07-29T14:51:34;27.80;1.00
9375;DHT22;4727;51.202;6.344;2022-07-29T14:53:59;28.00;99.90
9375;DHT22;4727;51.202;6.344;2022-07-29T14:56:25;27.70;99.90
9375;DHT22;4727;51.202;6.344;2022-07-29T14:58:51;27.70;1.00
9375;DHT22;4727;51.202;6.344;2022-07-29T15:01:16;27.50;1.00
9375;DHT22;4727;51.202;6.344;2022-07-29T15:03:42;27.00;1.00
9375;DHT22;4727;51.202;6.344;2022-07-29T15:06:07;27.30;1.00
9375;DHT22;4727;51.202;6.344;2022-07-29T15:08:33;27.60;99.90
9375;DHT22;4727;51.202;6.344;2022-07-29T15:10:58;27.90;1.00
9375;DHT22;4727;51.202;6.344;2022-07-29T15:13:25;28.20;99.90
9375;DHT22;4727;51.202;6.344;2022-07-29T15:15:51;28.00;99.90
9375;DHT22;4727;51.202;6.344;2022-07-29T15:18:17;27.60;99.90
9375;DHT22;4727;51.202;6.344;2022-07-29T15:20:42;27.60;99.90
9375;DHT22;4727;51.202;6.344;2022-07-29T15:23:10;27.90;99.90
9375;DHT22;4727;51.202;6.344;2022-07-29T15:25:38;28.30;99.90
9375;DHT22;4727;51.202;6.344;2022-07-29T15:28:03;28.40;99.90
9375;DHT22;4727;51.202;6.344;2022-07-29T15:30:33;28.70;99.90
9375;DHT22;4727;51.202;6.344;2022-07-29T15:33:02;28.70;99.90
9375;DHT22;4727;51.202;6.344;2022-07-29T15:35:28;28.80;99.90
9375;DHT22;4727;51.202;6.344;2022-07-29T15:37:54;28.70;99.90
9375;DHT22;4727;51.202;6.344;2022-07-29T15:40:19;28.50;99.90
9375;DHT22;4727;51.202;6.344;2022-07-29T15:42:45;28.30;99.90
9375;DHT22;4727;51.202;6.344;2022-07-29T15:45:10;28.30;99.90
9375;DHT22;4727;51.202;6.344;2022-07-29T15:47:36;28.40;99.90
9375;DHT22;4727;51.202;6.344;2022-07-29T15:50:02;28.50;99.90
9375;DHT22;4727;51.202;6.344;2022-07-29T15:52:27;28.50;99.90
9375;DHT22;4727;51.202;6.344;2022-07-29T15:54:55;28.50;99.90
9375;DHT22;4727;51.202;6.344;2022-07-29T15:57:21;28.30;99.90
9375;DHT22;4727;51.202;6.344;2022-07-29T15:59:46;28.40;99.90
9375;DHT22;4727;51.202;6.344;2022-07-29T16:02:12;28.30;99.90
9375;DHT22;4727;51.202;6.344;2022-07-29T16:04:37;28.20;99.90
9375;DHT22;4727;51.202;6.344;2022-07-29T16:07:03;28.30;99.90
9375;DHT22;4727;51.202;6.344;2022-07-29T16:09:29;28.40;99.90
9375;DHT22;4727;51.202;6.344;2022-07-29T16:11:54;28.50;99.90
9375;DHT22;4727;51.202;6.344;2022-07-29T16:14:21;28.50;99.90
9375;DHT22;4727;51.202;6.344;2022-07-29T16:16:47;28.40;99.90
9375;DHT22;4727;51.202;6.344;2022-07-29T16:19:13;28.10;99.90
9375;DHT22;4727;51.202;6.344;2022-07-29T16:21:39;28.00;99.90
9375;DHT22;4727;51.202;6.344;2022-07-29T16:24:05;28.00;99.90
9375;DHT22;4727;51.202;6.344;2022-07-29T16:26:32;28.10;99.90
9375;DHT22;4727;51.202;6.344;2022-07-29T16:28:57;28.20;99.90
9375;DHT22;4727;51.202;6.344;2022-07-29T16:31:24;28.10;99.90
9375;DHT22;4727;51.202;6.344;2022-07-29T16:33:51;28.20;99.90
9375;DHT22;4727;51.202;6.344;2022-07-29T16:36:17;28.20;99.90
9375;DHT22;4727;51.202;6.344;2022-07-29T16:38:43;28.20;99.90
9375;DHT22;4727;51.202;6.344;2022-07-29T16:41:08;28.30;99.90
9375;DHT22;4727;51.202;6.344;2022-07-29T16:43:34;28.00;99.90
9375;DHT22;4727;51.202;6.344;2022-07-29T16:45:59;27.70;99.90
9375;DHT22;4727;51.202;6.344;2022-07-29T16:48:25;27.70;99.90
9375;DHT22;4727;51.202;6.344;2022-07-29T16:50:51;27.60;99.90
9375;DHT22;4727;51.202;6.344;2022-07-29T16:53:16;27.60;1.00
9375;DHT22;4727;51.202;6.344;2022-07-29T16:55:42;27.40;99.90
9375;DHT22;4727;51.202;6.344;2022-07-29T16:58:09;27.20;1.00
9375;DHT22;4727;51.202;6.344;2022-07-29T17:00:35;27.10;1.00
9375;DHT22;4727;51.202;6.344;2022-07-29T17:03:00;26.90;1.00